NKS206 KDTW-KMYR
Flight info
| Callsign | NKS206 |
|---|---|
| Flight time | 1h 32m |
| Altitude | 39000 |
| Route | LIDDS4 GRIVY EKN RDU/N0437F380 FAY |
| Aircraft | A20N/M-SDE2E3FGHIRWXY/LB1 |
Departure
| Time | 2026-05-09 17:35 |
|---|---|
| Airport | Detroit Metropolitan Wayne County Airport (KDTW) |
Arrival
| Time | 2026-05-09 19:08 |
|---|---|
| Airport | Myrtle Beach International Airport (KMYR) |
| Time | Latitude | Longitude | Altitude | Speed | Heading |
|---|---|---|---|---|---|
| 2026-05-09 17:11 | 42.22446 | -83.35007 | 652 ft | 0 kts | 121° |
| 2026-05-09 17:17 | 42.22500 | -83.35074 | 655 ft | 0 kts | 208° |
| 2026-05-09 17:22 | 42.22492 | -83.35080 | 654 ft | 5 kts | 208° |
| 2026-05-09 17:23 | 42.22441 | -83.35128 | 652 ft | 10 kts | 225° |
| 2026-05-09 17:23 | 42.22398 | -83.35204 | 652 ft | 10 kts | 233° |
| 2026-05-09 17:23 | 42.22355 | -83.35281 | 652 ft | 10 kts | 226° |
| 2026-05-09 17:23 | 42.22297 | -83.35337 | 652 ft | 10 kts | 219° |
| 2026-05-09 17:25 | 42.21928 | -83.35322 | 652 ft | 19 kts | 208° |
| 2026-05-09 17:25 | 42.21826 | -83.35288 | 651 ft | 18 kts | 100° |
| 2026-05-09 17:25 | 42.21827 | -83.35096 | 652 ft | 23 kts | 89° |
| 2026-05-09 17:25 | 42.21832 | -83.34861 | 652 ft | 27 kts | 89° |
| 2026-05-09 17:26 | 42.21835 | -83.34608 | 652 ft | 26 kts | 90° |
| 2026-05-09 17:26 | 42.21860 | -83.34500 | 653 ft | 10 kts | 40° |
| 2026-05-09 17:26 | 42.21918 | -83.34455 | 652 ft | 11 kts | 29° |
| 2026-05-09 17:26 | 42.22022 | -83.34379 | 652 ft | 23 kts | 28° |
| 2026-05-09 17:27 | 42.22190 | -83.34255 | 651 ft | 30 kts | 28° |
| 2026-05-09 17:27 | 42.22371 | -83.34121 | 651 ft | 29 kts | 29° |
| 2026-05-09 17:27 | 42.22547 | -83.33991 | 652 ft | 28 kts | 29° |
| 2026-05-09 17:27 | 42.22718 | -83.33867 | 651 ft | 28 kts | 28° |
| 2026-05-09 17:28 | 42.22807 | -83.33800 | 651 ft | 0 kts | 29° |
| 2026-05-09 17:30 | 42.22826 | -83.33786 | 652 ft | 6 kts | 29° |
| 2026-05-09 17:30 | 42.22856 | -83.33749 | 650 ft | 6 kts | 62° |
| 2026-05-09 17:31 | 42.22857 | -83.33727 | 650 ft | 0 kts | 100° |
| 2026-05-09 17:33 | 42.22857 | -83.33726 | 650 ft | 1 kts | 100° |
| 2026-05-09 17:33 | 42.22849 | -83.33699 | 649 ft | 6 kts | 119° |
| 2026-05-09 17:33 | 42.22809 | -83.33634 | 648 ft | 8 kts | 169° |
| 2026-05-09 17:34 | 42.22779 | -83.33652 | 650 ft | 0 kts | 208° |
| 2026-05-09 17:35 | 42.21689 | -83.34453 | 668 ft | 153 kts | 210° |
| 2026-05-09 17:35 | 42.20702 | -83.35136 | 1258 ft | 156 kts | 201° |
| 2026-05-09 17:36 | 42.19695 | -83.35513 | 2257 ft | 151 kts | 195° |
| 2026-05-09 17:36 | 42.18575 | -83.35833 | 2885 ft | 179 kts | 194° |
| 2026-05-09 17:36 | 42.17271 | -83.36099 | 3419 ft | 206 kts | 190° |
| 2026-05-09 17:36 | 42.15714 | -83.36216 | 3878 ft | 239 kts | 184° |
| 2026-05-09 17:37 | 42.13997 | -83.36145 | 4720 ft | 253 kts | 182° |
| 2026-05-09 17:37 | 42.12212 | -83.36020 | 5626 ft | 261 kts | 182° |
| 2026-05-09 17:37 | 42.10378 | -83.35892 | 6420 ft | 266 kts | 184° |
| 2026-05-09 17:37 | 42.08522 | -83.35768 | 6866 ft | 269 kts | 184° |
| 2026-05-09 17:38 | 42.06641 | -83.35556 | 6990 ft | 275 kts | 176° |
| 2026-05-09 17:38 | 42.04819 | -83.34595 | 7018 ft | 290 kts | 151° |
| 2026-05-09 17:38 | 42.03453 | -83.32556 | 7009 ft | 302 kts | 120° |
| 2026-05-09 17:39 | 42.02391 | -83.27031 | 7007 ft | 308 kts | 102° |
| 2026-05-09 17:39 | 42.02016 | -83.24181 | 7010 ft | 309 kts | 102° |
| 2026-05-09 17:39 | 42.01632 | -83.21331 | 7013 ft | 310 kts | 102° |
| 2026-05-09 17:39 | 42.01429 | -83.18434 | 7292 ft | 315 kts | 87° |
| 2026-05-09 17:40 | 42.01705 | -83.15535 | 8070 ft | 319 kts | 79° |
| 2026-05-09 17:40 | 42.02103 | -83.12598 | 8707 ft | 320 kts | 78° |
| 2026-05-09 17:40 | 42.02522 | -83.09638 | 8979 ft | 323 kts | 78° |
| 2026-05-09 17:40 | 42.02935 | -83.06665 | 9708 ft | 319 kts | 77° |
| 2026-05-09 17:41 | 42.03309 | -83.03908 | 11384 ft | 275 kts | 78° |
| 2026-05-09 17:41 | 42.03621 | -83.01576 | 13123 ft | 235 kts | 78° |
| 2026-05-09 17:41 | 42.03897 | -82.99517 | 14058 ft | 218 kts | 78° |
| 2026-05-09 17:41 | 42.04203 | -82.97323 | 13919 ft | 264 kts | 77° |
| 2026-05-09 17:42 | 42.04591 | -82.94689 | 13758 ft | 309 kts | 77° |
| 2026-05-09 17:42 | 42.05054 | -82.91674 | 13695 ft | 347 kts | 77° |
| 2026-05-09 17:42 | 42.05581 | -82.88344 | 13675 ft | 380 kts | 77° |
| 2026-05-09 17:42 | 42.06038 | -82.84777 | 13934 ft | 400 kts | 80° |
| 2026-05-09 17:43 | 42.06481 | -82.80971 | 14407 ft | 413 kts | 80° |
| 2026-05-09 17:43 | 42.06938 | -82.77184 | 14868 ft | 415 kts | 80° |
| 2026-05-09 17:43 | 42.07151 | -82.73263 | 15346 ft | 427 kts | 95° |
| 2026-05-09 17:43 | 42.06649 | -82.69285 | 15850 ft | 436 kts | 104° |
| 2026-05-09 17:44 | 42.05908 | -82.65288 | 16343 ft | 445 kts | 106° |
| 2026-05-09 17:44 | 42.05123 | -82.61218 | 16944 ft | 451 kts | 106° |
| 2026-05-09 17:44 | 42.04345 | -82.57168 | 18071 ft | 442 kts | 106° |
| 2026-05-09 17:44 | 42.03589 | -82.53196 | 19049 ft | 435 kts | 106° |
| 2026-05-09 17:45 | 42.02855 | -82.49276 | 19954 ft | 431 kts | 106° |
| 2026-05-09 17:45 | 42.02135 | -82.45366 | 20686 ft | 431 kts | 105° |
| 2026-05-09 17:45 | 42.01414 | -82.41438 | 21330 ft | 434 kts | 105° |
| 2026-05-09 17:45 | 42.00687 | -82.37472 | 21932 ft | 438 kts | 105° |
| 2026-05-09 17:46 | 41.99953 | -82.33478 | 22507 ft | 442 kts | 105° |
| 2026-05-09 17:46 | 41.99221 | -82.29502 | 23050 ft | 445 kts | 105° |
| 2026-05-09 17:46 | 41.98474 | -82.25449 | 23547 ft | 449 kts | 105° |
| 2026-05-09 17:46 | 41.97716 | -82.21351 | 23959 ft | 454 kts | 105° |
| 2026-05-09 17:47 | 41.96951 | -82.17219 | 24366 ft | 458 kts | 105° |
| 2026-05-09 17:47 | 41.96030 | -82.13100 | 24770 ft | 461 kts | 113° |
| 2026-05-09 17:47 | 41.94596 | -82.09256 | 25168 ft | 461 kts | 126° |
| 2026-05-09 17:47 | 41.92596 | -82.05914 | 25531 ft | 458 kts | 140° |
| 2026-05-09 17:48 | 41.90195 | -82.03105 | 25896 ft | 458 kts | 146° |
| 2026-05-09 17:48 | 41.87678 | -82.00457 | 26256 ft | 461 kts | 147° |
| 2026-05-09 17:48 | 41.85129 | -81.97816 | 26610 ft | 465 kts | 147° |
| 2026-05-09 17:48 | 41.82560 | -81.95149 | 26966 ft | 469 kts | 147° |
| 2026-05-09 17:49 | 41.79972 | -81.92452 | 27311 ft | 473 kts | 147° |
| 2026-05-09 17:49 | 41.77366 | -81.89732 | 27664 ft | 476 kts | 147° |
| 2026-05-09 17:49 | 41.74745 | -81.86995 | 28001 ft | 480 kts | 147° |
| 2026-05-09 17:49 | 41.72108 | -81.84241 | 28336 ft | 483 kts | 147° |
| 2026-05-09 17:50 | 41.69433 | -81.81495 | 28660 ft | 485 kts | 149° |
| 2026-05-09 17:50 | 41.63985 | -81.76144 | 29297 ft | 491 kts | 149° |
| 2026-05-09 17:50 | 41.62120 | -81.74323 | 29506 ft | 493 kts | 149° |
| 2026-05-09 17:51 | 41.58433 | -81.70723 | 29901 ft | 497 kts | 149° |
| 2026-05-09 17:51 | 41.55635 | -81.67992 | 30162 ft | 499 kts | 149° |
| 2026-05-09 17:51 | 41.52823 | -81.65250 | 30432 ft | 501 kts | 150° |
| 2026-05-09 17:51 | 41.50001 | -81.62499 | 30704 ft | 503 kts | 150° |
| 2026-05-09 17:52 | 41.47159 | -81.59732 | 30961 ft | 506 kts | 150° |
| 2026-05-09 17:52 | 41.44312 | -81.56961 | 31297 ft | 506 kts | 150° |
| 2026-05-09 17:52 | 41.41471 | -81.54200 | 31654 ft | 505 kts | 150° |
| 2026-05-09 17:52 | 41.38628 | -81.51440 | 32010 ft | 505 kts | 150° |
| 2026-05-09 17:53 | 41.35789 | -81.48687 | 32325 ft | 505 kts | 151° |
| 2026-05-09 17:53 | 41.32946 | -81.45934 | 32629 ft | 506 kts | 151° |
| 2026-05-09 17:53 | 41.30099 | -81.43180 | 32924 ft | 506 kts | 151° |
| 2026-05-09 17:53 | 41.27245 | -81.40423 | 33223 ft | 506 kts | 151° |
| 2026-05-09 17:54 | 41.24398 | -81.37674 | 33524 ft | 506 kts | 152° |
| 2026-05-09 17:54 | 41.21579 | -81.34957 | 33806 ft | 507 kts | 152° |
| 2026-05-09 17:54 | 41.18728 | -81.32210 | 34061 ft | 506 kts | 152° |
| 2026-05-09 17:54 | 41.15880 | -81.29469 | 34338 ft | 505 kts | 152° |
| 2026-05-09 17:55 | 41.13032 | -81.26732 | 34611 ft | 504 kts | 152° |
| 2026-05-09 17:55 | 41.10197 | -81.24016 | 34870 ft | 502 kts | 153° |
| 2026-05-09 17:55 | 41.07243 | -81.21619 | 35099 ft | 491 kts | 163° |
| 2026-05-09 17:55 | 41.04168 | -81.19710 | 35326 ft | 486 kts | 166° |
| 2026-05-09 17:56 | 41.01059 | -81.17972 | 35561 ft | 483 kts | 167° |
| 2026-05-09 17:56 | 40.97932 | -81.16322 | 35783 ft | 482 kts | 168° |
| 2026-05-09 17:56 | 40.94853 | -81.14733 | 35988 ft | 482 kts | 168° |
| 2026-05-09 17:57 | 40.88603 | -81.11500 | 36410 ft | 481 kts | 168° |
| 2026-05-09 17:57 | 40.85488 | -81.09869 | 36608 ft | 481 kts | 168° |
| 2026-05-09 17:57 | 40.82370 | -81.08226 | 36798 ft | 481 kts | 168° |
| 2026-05-09 17:57 | 40.79258 | -81.06579 | 36977 ft | 482 kts | 168° |
| 2026-05-09 17:58 | 40.76146 | -81.04930 | 37183 ft | 481 kts | 168° |
| 2026-05-09 17:58 | 40.73032 | -81.03279 | 37370 ft | 481 kts | 168° |
| 2026-05-09 17:58 | 40.69929 | -81.01636 | 37538 ft | 481 kts | 168° |
| 2026-05-09 17:58 | 40.66826 | -80.99995 | 37743 ft | 480 kts | 168° |
| 2026-05-09 17:59 | 40.63767 | -80.98380 | 37890 ft | 480 kts | 168° |
| 2026-05-09 17:59 | 40.60666 | -80.96745 | 38049 ft | 480 kts | 168° |
| 2026-05-09 17:59 | 40.57566 | -80.95113 | 38198 ft | 480 kts | 168° |
| 2026-05-09 17:59 | 40.54461 | -80.93480 | 38362 ft | 480 kts | 168° |
| 2026-05-09 18:00 | 40.51361 | -80.91850 | 38543 ft | 480 kts | 168° |
| 2026-05-09 18:00 | 40.48261 | -80.90222 | 38681 ft | 479 kts | 168° |
| 2026-05-09 18:00 | 40.45163 | -80.88596 | 38811 ft | 479 kts | 168° |
| 2026-05-09 18:01 | 40.38949 | -80.85347 | 38881 ft | 483 kts | 168° |
| 2026-05-09 18:01 | 40.32657 | -80.82067 | 38883 ft | 490 kts | 168° |
| 2026-05-09 18:02 | 40.27363 | -80.79308 | 38885 ft | 495 kts | 168° |
| 2026-05-09 18:02 | 40.19819 | -80.75381 | 38887 ft | 502 kts | 168° |
| 2026-05-09 18:03 | 40.13326 | -80.72006 | 38885 ft | 508 kts | 168° |
| 2026-05-09 18:03 | 40.07789 | -80.69134 | 38887 ft | 513 kts | 168° |
| 2026-05-09 18:03 | 40.03435 | -80.66865 | 39458 ft | 502 kts | 168° |
| 2026-05-09 18:04 | 40.00193 | -80.65163 | 39345 ft | 508 kts | 168° |
| 2026-05-09 18:04 | 39.98008 | -80.64019 | 39096 ft | 508 kts | 168° |
| 2026-05-09 18:04 | 39.94734 | -80.62296 | 38641 ft | 507 kts | 168° |
| 2026-05-09 18:04 | 39.91444 | -80.60558 | 38241 ft | 514 kts | 168° |
| 2026-05-09 18:05 | 39.88152 | -80.58816 | 38608 ft | 507 kts | 168° |
| 2026-05-09 18:05 | 39.84914 | -80.57085 | 38884 ft | 499 kts | 168° |
| 2026-05-09 18:05 | 39.81721 | -80.55363 | 39158 ft | 494 kts | 167° |
| 2026-05-09 18:06 | 39.75327 | -80.52082 | 39077 ft | 499 kts | 170° |
| 2026-05-09 18:06 | 39.72064 | -80.50519 | 38899 ft | 495 kts | 170° |
| 2026-05-09 18:06 | 39.68886 | -80.48968 | 38873 ft | 481 kts | 170° |
| 2026-05-09 18:07 | 39.62735 | -80.45899 | 38876 ft | 470 kts | 170° |
| 2026-05-09 18:07 | 39.56646 | -80.42832 | 38881 ft | 471 kts | 170° |
| 2026-05-09 18:08 | 39.50561 | -80.39744 | 38885 ft | 471 kts | 170° |
| 2026-05-09 18:08 | 39.44459 | -80.36640 | 38891 ft | 472 kts | 170° |
| 2026-05-09 18:09 | 39.38350 | -80.33538 | 38888 ft | 471 kts | 170° |
| 2026-05-09 18:09 | 39.32236 | -80.30441 | 38892 ft | 472 kts | 170° |
| 2026-05-09 18:10 | 39.26125 | -80.27351 | 38894 ft | 471 kts | 170° |
| 2026-05-09 18:10 | 39.20016 | -80.24270 | 38886 ft | 471 kts | 170° |
| 2026-05-09 18:11 | 39.13910 | -80.21194 | 38889 ft | 471 kts | 171° |
| 2026-05-09 18:11 | 39.07839 | -80.18142 | 38891 ft | 471 kts | 171° |
| 2026-05-09 18:12 | 39.01741 | -80.15084 | 38892 ft | 471 kts | 171° |
| 2026-05-09 18:12 | 38.95636 | -80.12027 | 38893 ft | 470 kts | 171° |
| 2026-05-09 18:13 | 38.89526 | -80.09021 | 38901 ft | 468 kts | 172° |
| 2026-05-09 18:13 | 38.83398 | -80.06232 | 38901 ft | 467 kts | 172° |
| 2026-05-09 18:14 | 38.77264 | -80.03506 | 38899 ft | 466 kts | 173° |
| 2026-05-09 18:14 | 38.71126 | -80.00771 | 38901 ft | 466 kts | 173° |
| 2026-05-09 18:15 | 38.65003 | -79.98033 | 38904 ft | 466 kts | 173° |
| 2026-05-09 18:15 | 38.58914 | -79.95305 | 38907 ft | 466 kts | 173° |
| 2026-05-09 18:16 | 38.52791 | -79.92566 | 38908 ft | 466 kts | 173° |
| 2026-05-09 18:16 | 38.46667 | -79.89833 | 38893 ft | 466 kts | 173° |
| 2026-05-09 18:17 | 38.40550 | -79.87106 | 38905 ft | 465 kts | 173° |
| 2026-05-09 18:17 | 38.34432 | -79.84387 | 38895 ft | 465 kts | 173° |
| 2026-05-09 18:18 | 38.28313 | -79.81672 | 38895 ft | 465 kts | 173° |
| 2026-05-09 18:18 | 38.22235 | -79.78979 | 38912 ft | 465 kts | 173° |
| 2026-05-09 18:19 | 38.16125 | -79.76274 | 38927 ft | 465 kts | 174° |
| 2026-05-09 18:19 | 38.06957 | -79.72229 | 38942 ft | 464 kts | 174° |
| 2026-05-09 18:20 | 38.00853 | -79.69541 | 38953 ft | 465 kts | 173° |
| 2026-05-09 18:20 | 37.94738 | -79.66854 | 38953 ft | 465 kts | 173° |
| 2026-05-09 18:21 | 37.88620 | -79.64168 | 39176 ft | 465 kts | 174° |
| 2026-05-09 18:21 | 37.82505 | -79.61489 | 39168 ft | 465 kts | 173° |
| 2026-05-09 18:22 | 37.76372 | -79.58811 | 39179 ft | 467 kts | 174° |
| 2026-05-09 18:22 | 37.70234 | -79.56130 | 39134 ft | 465 kts | 173° |
| 2026-05-09 18:23 | 37.64151 | -79.53477 | 39069 ft | 465 kts | 174° |
| 2026-05-09 18:23 | 37.58039 | -79.50819 | 38996 ft | 465 kts | 174° |
| 2026-05-09 18:24 | 37.51915 | -79.48162 | 38898 ft | 464 kts | 173° |
| 2026-05-09 18:25 | 37.42741 | -79.44186 | 38907 ft | 464 kts | 174° |
| 2026-05-09 18:25 | 37.36631 | -79.41545 | 38907 ft | 464 kts | 174° |
| 2026-05-09 18:26 | 37.30523 | -79.38909 | 38912 ft | 464 kts | 174° |
| 2026-05-09 18:26 | 37.24454 | -79.36293 | 38905 ft | 463 kts | 174° |
| 2026-05-09 18:27 | 37.18354 | -79.33669 | 38905 ft | 462 kts | 174° |
| 2026-05-09 18:27 | 37.12275 | -79.31059 | 38906 ft | 461 kts | 174° |
| 2026-05-09 18:28 | 37.06204 | -79.28456 | 38902 ft | 461 kts | 174° |
| 2026-05-09 18:28 | 37.00176 | -79.25876 | 38896 ft | 460 kts | 174° |
| 2026-05-09 18:29 | 36.94116 | -79.23286 | 38899 ft | 459 kts | 175° |
| 2026-05-09 18:29 | 36.88066 | -79.20705 | 38903 ft | 458 kts | 175° |
| 2026-05-09 18:30 | 36.82045 | -79.18142 | 38904 ft | 457 kts | 175° |
| 2026-05-09 18:30 | 36.76027 | -79.15585 | 38908 ft | 457 kts | 175° |
| 2026-05-09 18:31 | 36.70045 | -79.13047 | 38914 ft | 456 kts | 176° |
| 2026-05-09 18:31 | 36.64023 | -79.10499 | 38914 ft | 458 kts | 176° |
| 2026-05-09 18:32 | 36.57994 | -79.07949 | 38916 ft | 458 kts | 176° |
| 2026-05-09 18:32 | 36.51963 | -79.05400 | 38913 ft | 457 kts | 176° |
| 2026-05-09 18:33 | 36.45948 | -79.02861 | 38937 ft | 455 kts | 176° |
| 2026-05-09 18:33 | 36.39951 | -79.00336 | 38790 ft | 456 kts | 177° |
| 2026-05-09 18:33 | 36.36926 | -78.99073 | 38175 ft | 461 kts | 177° |
| 2026-05-09 18:34 | 36.33876 | -78.97804 | 37190 ft | 465 kts | 176° |
| 2026-05-09 18:34 | 36.30788 | -78.96518 | 36062 ft | 470 kts | 176° |
| 2026-05-09 18:34 | 36.27675 | -78.95219 | 35020 ft | 473 kts | 175° |
| 2026-05-09 18:34 | 36.24555 | -78.93908 | 34359 ft | 473 kts | 175° |
| 2026-05-09 18:35 | 36.21449 | -78.92596 | 33935 ft | 468 kts | 174° |
| 2026-05-09 18:35 | 36.18392 | -78.91301 | 33474 ft | 463 kts | 174° |
| 2026-05-09 18:35 | 36.15357 | -78.90019 | 33045 ft | 457 kts | 174° |
| 2026-05-09 18:35 | 36.12373 | -78.88762 | 32623 ft | 451 kts | 174° |
| 2026-05-09 18:36 | 36.09456 | -78.87540 | 32218 ft | 445 kts | 174° |
| 2026-05-09 18:36 | 36.06533 | -78.86320 | 31809 ft | 440 kts | 174° |
| 2026-05-09 18:36 | 36.03638 | -78.85115 | 31408 ft | 436 kts | 174° |
| 2026-05-09 18:36 | 36.00776 | -78.83927 | 31006 ft | 433 kts | 175° |
| 2026-05-09 18:37 | 35.97928 | -78.82746 | 30617 ft | 429 kts | 174° |
| 2026-05-09 18:37 | 35.95104 | -78.81576 | 30218 ft | 426 kts | 174° |
| 2026-05-09 18:37 | 35.92302 | -78.80415 | 29773 ft | 424 kts | 174° |
| 2026-05-09 18:37 | 35.89516 | -78.79270 | 29316 ft | 418 kts | 176° |
| 2026-05-09 18:38 | 35.86755 | -78.78693 | 28936 ft | 388 kts | 192° |
| 2026-05-09 18:38 | 35.84113 | -78.78706 | 28690 ft | 374 kts | 195° |
| 2026-05-09 18:38 | 35.81547 | -78.78845 | 28352 ft | 365 kts | 197° |
| 2026-05-09 18:40 | 35.64492 | -78.80703 | 25954 ft | 346 kts | 198° |
| 2026-05-09 18:40 | 35.62092 | -78.80956 | 25621 ft | 345 kts | 197° |
| 2026-05-09 18:40 | 35.59704 | -78.81204 | 25291 ft | 344 kts | 197° |
| 2026-05-09 18:41 | 35.57327 | -78.81450 | 24963 ft | 342 kts | 197° |
| 2026-05-09 18:41 | 35.54954 | -78.81694 | 24625 ft | 340 kts | 197° |
| 2026-05-09 18:41 | 35.52602 | -78.81936 | 24298 ft | 339 kts | 197° |
| 2026-05-09 18:41 | 35.50285 | -78.82176 | 23968 ft | 338 kts | 197° |
| 2026-05-09 18:42 | 35.47917 | -78.82422 | 23638 ft | 336 kts | 196° |
| 2026-05-09 18:42 | 35.45593 | -78.82662 | 23267 ft | 335 kts | 196° |
| 2026-05-09 18:42 | 35.43279 | -78.82901 | 22926 ft | 333 kts | 196° |
| 2026-05-09 18:42 | 35.41010 | -78.83135 | 22606 ft | 331 kts | 196° |
| 2026-05-09 18:43 | 35.38688 | -78.83375 | 22278 ft | 330 kts | 195° |
| 2026-05-09 18:43 | 35.36405 | -78.83611 | 21959 ft | 328 kts | 195° |
| 2026-05-09 18:43 | 35.34163 | -78.83843 | 21635 ft | 326 kts | 195° |
| 2026-05-09 18:43 | 35.31908 | -78.84075 | 21316 ft | 325 kts | 195° |
| 2026-05-09 18:44 | 35.29657 | -78.84308 | 20989 ft | 323 kts | 195° |
| 2026-05-09 18:44 | 35.27423 | -78.84538 | 20673 ft | 322 kts | 195° |
| 2026-05-09 18:44 | 35.25201 | -78.84767 | 20330 ft | 320 kts | 194° |
| 2026-05-09 18:44 | 35.22988 | -78.84995 | 20017 ft | 318 kts | 194° |
| 2026-05-09 18:45 | 35.20783 | -78.85222 | 19699 ft | 317 kts | 194° |
| 2026-05-09 18:45 | 35.18590 | -78.85448 | 19382 ft | 315 kts | 194° |
| 2026-05-09 18:45 | 35.16412 | -78.85672 | 19065 ft | 314 kts | 194° |
| 2026-05-09 18:45 | 35.14238 | -78.85895 | 18758 ft | 312 kts | 193° |
| 2026-05-09 18:46 | 35.12075 | -78.86118 | 18443 ft | 311 kts | 193° |
| 2026-05-09 18:46 | 35.09926 | -78.86338 | 18134 ft | 310 kts | 193° |
| 2026-05-09 18:46 | 35.07767 | -78.86562 | 17871 ft | 316 kts | 193° |
| 2026-05-09 18:46 | 35.05581 | -78.86789 | 17660 ft | 313 kts | 193° |
| 2026-05-09 18:47 | 35.03414 | -78.87010 | 17240 ft | 312 kts | 193° |
| 2026-05-09 18:47 | 35.01256 | -78.87228 | 16910 ft | 309 kts | 193° |
| 2026-05-09 18:47 | 34.99132 | -78.87440 | 16615 ft | 304 kts | 193° |
| 2026-05-09 18:47 | 34.97057 | -78.87635 | 16322 ft | 301 kts | 193° |
| 2026-05-09 18:48 | 34.94983 | -78.87825 | 16022 ft | 297 kts | 193° |
| 2026-05-09 18:48 | 34.92924 | -78.88014 | 15725 ft | 295 kts | 193° |
| 2026-05-09 18:48 | 34.90880 | -78.88202 | 15434 ft | 294 kts | 193° |
| 2026-05-09 18:48 | 34.88844 | -78.88389 | 15145 ft | 293 kts | 193° |
| 2026-05-09 18:49 | 34.86817 | -78.88575 | 14860 ft | 291 kts | 193° |
| 2026-05-09 18:49 | 34.84806 | -78.88759 | 14567 ft | 290 kts | 193° |
| 2026-05-09 18:49 | 34.82794 | -78.88942 | 14283 ft | 288 kts | 193° |
| 2026-05-09 18:49 | 34.80803 | -78.89124 | 13999 ft | 287 kts | 193° |
| 2026-05-09 18:50 | 34.79487 | -78.89244 | 13815 ft | 286 kts | 193° |
| 2026-05-09 18:50 | 34.76839 | -78.89485 | 13417 ft | 284 kts | 193° |
| 2026-05-09 18:50 | 34.74895 | -78.89663 | 13149 ft | 283 kts | 193° |
| 2026-05-09 18:50 | 34.72931 | -78.89842 | 12873 ft | 282 kts | 193° |
| 2026-05-09 18:51 | 34.70975 | -78.90020 | 12606 ft | 281 kts | 193° |
| 2026-05-09 18:51 | 34.69655 | -78.90140 | 12424 ft | 281 kts | 193° |
| 2026-05-09 18:51 | 34.67735 | -78.90315 | 12149 ft | 280 kts | 193° |
| 2026-05-09 18:51 | 34.65798 | -78.90491 | 11867 ft | 279 kts | 193° |
| 2026-05-09 18:52 | 34.63866 | -78.90666 | 11591 ft | 278 kts | 192° |
| 2026-05-09 18:52 | 34.61940 | -78.90841 | 11327 ft | 277 kts | 192° |
| 2026-05-09 18:52 | 34.60015 | -78.91016 | 11053 ft | 276 kts | 192° |
| 2026-05-09 18:52 | 34.58105 | -78.91189 | 10775 ft | 275 kts | 192° |
| 2026-05-09 18:53 | 34.56199 | -78.91362 | 10537 ft | 274 kts | 192° |
| 2026-05-09 18:53 | 34.54300 | -78.91534 | 10346 ft | 273 kts | 192° |
| 2026-05-09 18:53 | 34.52400 | -78.91706 | 10092 ft | 273 kts | 192° |
| 2026-05-09 18:53 | 34.50512 | -78.91877 | 9832 ft | 272 kts | 192° |
| 2026-05-09 18:54 | 34.48626 | -78.92047 | 9565 ft | 271 kts | 192° |
| 2026-05-09 18:54 | 34.46751 | -78.92217 | 9318 ft | 270 kts | 192° |
| 2026-05-09 18:54 | 34.44908 | -78.92384 | 9074 ft | 268 kts | 192° |
| 2026-05-09 18:54 | 34.43043 | -78.92552 | 8829 ft | 268 kts | 192° |
| 2026-05-09 18:55 | 34.41188 | -78.92720 | 8593 ft | 268 kts | 192° |
| 2026-05-09 18:55 | 34.39331 | -78.92888 | 8346 ft | 266 kts | 191° |
| 2026-05-09 18:55 | 34.37492 | -78.93053 | 8103 ft | 264 kts | 191° |
| 2026-05-09 18:55 | 34.35661 | -78.93218 | 7868 ft | 264 kts | 191° |
| 2026-05-09 18:56 | 34.33834 | -78.93383 | 7619 ft | 262 kts | 191° |
| 2026-05-09 18:56 | 34.32041 | -78.93545 | 7385 ft | 260 kts | 191° |
| 2026-05-09 18:56 | 34.30234 | -78.93708 | 7152 ft | 261 kts | 191° |
| 2026-05-09 18:56 | 34.28426 | -78.93872 | 6916 ft | 260 kts | 190° |
| 2026-05-09 18:57 | 34.26629 | -78.94033 | 6677 ft | 258 kts | 190° |
| 2026-05-09 18:57 | 34.24836 | -78.94194 | 6442 ft | 258 kts | 190° |
| 2026-05-09 18:57 | 34.23045 | -78.94355 | 6205 ft | 257 kts | 190° |
| 2026-05-09 18:57 | 34.21265 | -78.94515 | 5968 ft | 256 kts | 189° |
| 2026-05-09 18:58 | 34.19491 | -78.94674 | 5737 ft | 254 kts | 189° |
| 2026-05-09 18:58 | 34.17733 | -78.94831 | 5510 ft | 253 kts | 189° |
| 2026-05-09 18:58 | 34.15983 | -78.94989 | 5281 ft | 252 kts | 189° |
| 2026-05-09 18:58 | 34.14236 | -78.95146 | 5056 ft | 251 kts | 189° |
| 2026-05-09 18:59 | 34.12498 | -78.95303 | 4832 ft | 250 kts | 188° |
| 2026-05-09 18:59 | 34.10787 | -78.95456 | 4594 ft | 249 kts | 188° |
| 2026-05-09 18:59 | 34.09063 | -78.95610 | 4377 ft | 248 kts | 188° |
| 2026-05-09 18:59 | 34.07346 | -78.95764 | 4162 ft | 246 kts | 188° |
| 2026-05-09 19:00 | 34.05656 | -78.95914 | 3933 ft | 241 kts | 188° |
| 2026-05-09 19:00 | 34.02418 | -78.96200 | 3593 ft | 223 kts | 188° |
| 2026-05-09 19:00 | 34.00899 | -78.96334 | 3417 ft | 216 kts | 188° |
| 2026-05-09 19:01 | 33.99404 | -78.96469 | 3138 ft | 214 kts | 188° |
| 2026-05-09 19:01 | 33.97933 | -78.96602 | 2927 ft | 209 kts | 188° |
| 2026-05-09 19:01 | 33.96490 | -78.96732 | 2753 ft | 207 kts | 188° |
| 2026-05-09 19:01 | 33.95045 | -78.96862 | 2580 ft | 209 kts | 188° |
| 2026-05-09 19:02 | 33.93590 | -78.96993 | 2393 ft | 209 kts | 188° |
| 2026-05-09 19:02 | 33.92154 | -78.97122 | 2233 ft | 204 kts | 188° |
| 2026-05-09 19:02 | 33.90768 | -78.97242 | 2033 ft | 196 kts | 187° |
| 2026-05-09 19:02 | 33.89476 | -78.97355 | 1960 ft | 180 kts | 188° |
| 2026-05-09 19:03 | 33.88245 | -78.97465 | 1968 ft | 177 kts | 187° |
| 2026-05-09 19:03 | 33.87016 | -78.97502 | 1964 ft | 178 kts | 180° |
| 2026-05-09 19:03 | 33.85786 | -78.97284 | 1960 ft | 180 kts | 173° |
| 2026-05-09 19:03 | 33.84553 | -78.96976 | 1972 ft | 180 kts | 172° |
| 2026-05-09 19:04 | 33.83328 | -78.96661 | 1969 ft | 180 kts | 173° |
| 2026-05-09 19:04 | 33.82104 | -78.96355 | 1974 ft | 180 kts | 174° |
| 2026-05-09 19:04 | 33.80875 | -78.96058 | 1981 ft | 180 kts | 174° |
| 2026-05-09 19:04 | 33.79651 | -78.95760 | 1981 ft | 180 kts | 173° |
| 2026-05-09 19:05 | 33.78433 | -78.95456 | 1883 ft | 178 kts | 172° |
| 2026-05-09 19:05 | 33.77259 | -78.95159 | 1635 ft | 167 kts | 171° |
| 2026-05-09 19:05 | 33.76167 | -78.94881 | 1429 ft | 154 kts | 173° |
| 2026-05-09 19:05 | 33.75155 | -78.94630 | 1196 ft | 144 kts | 173° |
| 2026-05-09 19:06 | 33.74182 | -78.94368 | 970 ft | 142 kts | 171° |
| 2026-05-09 19:06 | 33.73217 | -78.94129 | 827 ft | 142 kts | 171° |
| 2026-05-09 19:06 | 33.72246 | -78.93896 | 637 ft | 142 kts | 169° |
| 2026-05-09 19:06 | 33.71280 | -78.93646 | 446 ft | 142 kts | 169° |
| 2026-05-09 19:07 | 33.70316 | -78.93419 | 258 ft | 141 kts | 169° |
| 2026-05-09 19:07 | 33.69375 | -78.93181 | 70 ft | 139 kts | 169° |
| 2026-05-09 19:07 | 33.68476 | -78.92958 | 34 ft | 117 kts | 168° |
| 2026-05-09 19:07 | 33.67864 | -78.92806 | 34 ft | 64 kts | 168° |
| 2026-05-09 19:08 | 33.67630 | -78.92723 | 34 ft | 23 kts | 149° |
| 2026-05-09 19:08 | 33.67500 | -78.92600 | 33 ft | 24 kts | 140° |
| 2026-05-09 19:08 | 33.67390 | -78.92482 | 34 ft | 20 kts | 139° |
| 2026-05-09 19:08 | 33.67355 | -78.92349 | 34 ft | 16 kts | 45° |
| 2026-05-09 19:09 | 33.67462 | -78.92356 | 34 ft | 17 kts | 348° |
| 2026-05-09 19:09 | 33.67582 | -78.92386 | 34 ft | 19 kts | 348° |
| 2026-05-09 19:09 | 33.67713 | -78.92425 | 33 ft | 20 kts | 336° |
| 2026-05-09 19:09 | 33.67845 | -78.92498 | 34 ft | 22 kts | 335° |
| 2026-05-09 19:10 | 33.67993 | -78.92546 | 35 ft | 21 kts | 348° |
| 2026-05-09 19:10 | 33.68131 | -78.92580 | 35 ft | 20 kts | 348° |
| 2026-05-09 19:10 | 33.68220 | -78.92565 | 33 ft | 6 kts | 43° |
| 2026-05-09 19:10 | 33.68235 | -78.92545 | 35 ft | 1 kts | 48° |
| 2026-05-09 19:11 | 33.68247 | -78.92529 | 35 ft | 4 kts | 48° |
| 2026-05-09 19:11 | 33.68260 | -78.92493 | 35 ft | 6 kts | 78° |
| 2026-05-09 19:11 | 33.68258 | -78.92445 | 35 ft | 3 kts | 96° |
| 2026-05-09 19:11 | 33.68255 | -78.92412 | 35 ft | 2 kts | 95° |